Time,TemperatureF,DewpointF,PressureIn,WindDirection,WindDirectionDegrees,WindSpeedMPH,WindSpeedGustMPH,Humidity,HourlyPrecipIn,Conditions,Clouds,dailyrainin,SoftwareType,DateUTC
2015-08-05 00:04:00,45.8,40.6,28.50,North,0,0.0,0.0,82,0.00,CLR,OVC,0.00,WeatherDisplay:10.37,2015-08-05 04:04:00,
2015-08-05 00:09:00,45.3,40.1,28.50,North,0,0.0,0.0,82,0.00,CLR,OVC,0.00,WeatherDisplay:10.37,2015-08-05 04:09:00,
2015-08-05 00:14:00,45.0,39.8,28.50,North,0,0.0,0.0,82,0.00,CLR,OVC,0.00,WeatherDisplay:10.37,2015-08-05 04:14:00,
2015-08-05 00:19:00,44.6,39.4,28.50,North,0,0.0,0.0,82,0.00,CLR,OVC,0.00,WeatherDisplay:10.37,2015-08-05 04:19:00,
2015-08-05 00:24:00,44.4,39.0,28.50,North,0,0.0,0.0,81,0.00,CLR,OVC,0.00,WeatherDisplay:10.37,2015-08-05 04:24:00,
2015-08-05 00:29:00,44.2,39.1,28.50,North,0,0.0,0.0,82,0.00,CLR,OVC,0.00,WeatherDisplay:10.37,2015-08-05 04:29:00,
2015-08-05 00:34:00,44.4,39.3,28.50,North,0,0.0,0.0,82,0.00,CLR,OVC,0.00,WeatherDisplay:10.37,2015-08-05 04:34:00,
2015-08-05 00:39:00,44.2,39.1,28.50,North,0,0.0,0.0,82,0.00,CLR,OVC,0.00,WeatherDisplay:10.37,2015-08-05 04:39:00,
2015-08-05 00:44:00,44.1,38.6,28.50,North,0,0.0,0.0,81,0.00,CLR,OVC,0.00,WeatherDisplay:10.37,2015-08-05 04:44:00,
2015-08-05 00:49:00,43.7,38.3,28.50,North,0,0.0,0.0,81,0.00,CLR,OVC,0.00,WeatherDisplay:10.37,2015-08-05 04:49:00,
2015-08-05 00:54:00,43.7,38.3,28.50,North,0,0.0,0.0,81,0.00,CLR,OVC,0.00,WeatherDisplay:10.37,2015-08-05 04:54:00,
2015-08-05 00:59:00,43.5,38.4,28.50,North,0,0.0,0.0,82,0.00,CLR,OVC,0.00,WeatherDisplay:10.37,2015-08-05 04:59:00,
2015-08-05 01:04:00,43.3,38.2,28.50,North,0,0.0,0.0,82,0.00,CLR,OVC,0.00,WeatherDisplay:10.37,2015-08-05 05:04:00,
2015-08-05 01:09:00,43.3,38.2,28.50,North,0,0.0,0.0,82,0.00,CLR,OVC,0.00,WeatherDisplay:10.37,2015-08-05 05:09:00,
2015-08-05 01:14:00,43.3,38.2,28.50,North,0,0.0,0.0,82,0.00,CLR,OVC,0.00,WeatherDisplay:10.37,2015-08-05 05:14:00,
2015-08-05 01:19:00,43.3,38.2,28.50,North,0,0.0,0.0,82,0.00,CLR,OVC,0.00,WeatherDisplay:10.37,2015-08-05 05:19:00,
2015-08-05 01:24:00,43.2,38.1,28.50,North,0,0.0,0.0,82,0.00,CLR,OVC,0.00,WeatherDisplay:10.37,2015-08-05 05:24:00,
2015-08-05 01:29:00,43.2,38.0,28.50,North,0,0.0,0.0,82,0.00,CLR,OVC,0.00,WeatherDisplay:10.37,2015-08-05 05:29:00,
2015-08-05 01:34:00,43.2,38.0,28.50,North,0,0.0,0.0,82,0.00,CLR,OVC,0.00,WeatherDisplay:10.37,2015-08-05 05:34:00,
2015-08-05 01:39:00,43.2,38.0,28.50,North,0,0.0,0.0,82,0.00,CLR,OVC,0.00,WeatherDisplay:10.37,2015-08-05 05:39:00,
2015-08-05 01:44:00,43.0,37.9,28.50,North,0,0.0,0.0,82,0.00,CLR,OVC,0.00,WeatherDisplay:10.37,2015-08-05 05:44:00,
2015-08-05 01:49:00,43.0,37.9,28.50,North,0,0.0,0.0,82,0.00,CLR,OVC,0.00,WeatherDisplay:10.37,2015-08-05 05:49:00,
2015-08-05 01:54:00,43.2,38.0,28.50,North,0,0.0,0.0,82,0.00,CLR,OVC,0.00,WeatherDisplay:10.37,2015-08-05 05:54:00,
2015-08-05 01:59:00,43.0,37.9,28.53,North,0,0.0,0.0,82,0.00,CLR,OVC,0.00,WeatherDisplay:10.37,2015-08-05 05:59:00,
2015-08-05 02:04:00,42.8,37.7,28.53,North,0,0.0,0.0,82,0.00,CLR,OVC,0.00,WeatherDisplay:10.37,2015-08-05 06:04:00,
2015-08-05 02:09:00,42.8,38.0,28.53,North,0,0.0,0.0,83,0.00,CLR,OVC,0.00,WeatherDisplay:10.37,2015-08-05 06:09:00,
2015-08-05 02:14:00,42.6,37.8,28.53,North,0,0.0,0.0,83,0.00,CLR,OVC,0.00,WeatherDisplay:10.37,2015-08-05 06:14:00,
2015-08-05 02:19:00,42.4,37.6,28.53,North,0,0.0,0.0,83,0.00,CLR,OVC,0.00,WeatherDisplay:10.37,2015-08-05 06:19:00,
2015-08-05 02:24:00,42.4,37.6,28.53,North,0,0.0,0.0,83,0.00,CLR,OVC,0.00,WeatherDisplay:10.37,2015-08-05 06:24:00,
2015-08-05 02:29:00,42.1,37.3,28.53,North,0,0.0,0.0,83,0.00,CLR,OVC,0.00,WeatherDisplay:10.37,2015-08-05 06:29:00,
2015-08-05 02:34:00,41.9,37.1,28.53,North,0,0.0,0.0,83,0.00,CLR,OVC,0.00,WeatherDisplay:10.37,2015-08-05 06:34:00,
2015-08-05 02:39:00,41.9,37.4,28.53,North,0,0.0,0.0,84,0.00,CLR,OVC,0.00,WeatherDisplay:10.37,2015-08-05 06:39:00,
2015-08-05 02:44:00,41.9,37.4,28.53,North,0,0.0,0.0,84,0.00,CLR,OVC,0.00,WeatherDisplay:10.37,2015-08-05 06:44:00,
2015-08-05 02:49:00,41.9,37.4,28.53,North,0,0.0,0.0,84,0.00,CLR,OVC,0.00,WeatherDisplay:10.37,2015-08-05 06:49:00,
2015-08-05 02:54:00,41.7,37.5,28.53,North,0,0.0,0.0,85,0.00,CLR,OVC,0.00,WeatherDisplay:10.37,2015-08-05 06:54:00,
2015-08-05 02:59:00,41.4,37.2,28.53,North,0,0.0,0.0,85,0.00,CLR,OVC,0.00,WeatherDisplay:10.37,2015-08-05 06:59:00,
2015-08-05 03:04:00,41.4,37.2,28.53,North,0,0.0,0.0,85,0.00,CLR,OVC,0.00,WeatherDisplay:10.37,2015-08-05 07:04:00,
2015-08-05 03:09:00,41.4,37.2,28.53,North,0,0.0,0.0,85,0.00,CLR,OVC,0.00,WeatherDisplay:10.37,2015-08-05 07:09:00,
2015-08-05 03:14:00,41.4,37.2,28.53,North,0,0.0,0.0,85,0.00,CLR,OVC,0.00,WeatherDisplay:10.37,2015-08-05 07:14:00,
2015-08-05 03:19:00,41.4,37.2,28.53,North,0,0.0,0.0,85,0.00,CLR,OVC,0.00,WeatherDisplay:10.37,2015-08-05 07:19:00,
2015-08-05 03:24:00,41.5,37.4,28.53,North,0,0.0,0.0,85,0.00,CLR,OVC,0.00,WeatherDisplay:10.37,2015-08-05 07:24:00,
2015-08-05 03:29:00,41.5,37.7,28.50,North,0,0.0,0.0,86,0.00,CLR,OVC,0.00,WeatherDisplay:10.37,2015-08-05 07:29:00,
2015-08-05 03:34:00,41.7,37.8,28.50,North,0,0.0,0.0,86,0.00,CLR,OVC,0.00,WeatherDisplay:10.37,2015-08-05 07:34:00,
2015-08-05 03:39:00,41.7,37.8,28.50,North,0,0.0,0.0,86,0.00,CLR,OVC,0.00,WeatherDisplay:10.37,2015-08-05 07:39:00,
2015-08-05 03:44:00,41.7,37.8,28.53,North,0,0.0,0.0,86,0.00,CLR,OVC,0.00,WeatherDisplay:10.37,2015-08-05 07:44:00,
2015-08-05 03:49:00,41.7,37.8,28.53,North,0,0.0,0.0,86,0.00,CLR,OVC,0.00,WeatherDisplay:10.37,2015-08-05 07:49:00,
2015-08-05 03:54:00,41.9,38.0,28.53,North,0,0.0,0.0,86,0.00,CLR,OVC,0.00,WeatherDisplay:10.37,2015-08-05 07:54:00,
2015-08-05 03:59:00,41.9,38.0,28.53,North,0,0.0,0.0,86,0.00,CLR,OVC,0.00,WeatherDisplay:10.37,2015-08-05 07:59:00,
2015-08-05 04:04:00,41.7,37.8,28.53,North,0,0.0,0.0,86,0.00,CLR,OVC,0.00,WeatherDisplay:10.37,2015-08-05 08:04:00,
2015-08-05 04:09:00,41.5,37.7,28.53,North,0,0.0,0.0,86,0.00,CLR,OVC,0.00,WeatherDisplay:10.37,2015-08-05 08:09:00,
2015-08-05 04:14:00,41.5,37.7,28.53,North,0,0.0,0.0,86,0.00,CLR,OVC,0.00,WeatherDisplay:10.37,2015-08-05 08:14:00,
2015-08-05 04:19:00,41.4,37.5,28.53,North,0,0.0,0.0,86,0.00,CLR,OVC,0.00,WeatherDisplay:10.37,2015-08-05 08:19:00,
2015-08-05 04:24:00,41.4,37.5,28.53,North,0,0.0,0.0,86,0.00,CLR,OVC,0.00,WeatherDisplay:10.37,2015-08-05 08:24:00,
2015-08-05 04:29:00,41.4,37.5,28.53,North,0,0.0,0.0,86,0.00,CLR,OVC,0.00,WeatherDisplay:10.37,2015-08-05 08:29:00,
2015-08-05 04:34:00,41.4,37.5,28.53,North,0,0.0,0.0,86,0.00,CLR,OVC,0.00,WeatherDisplay:10.37,2015-08-05 08:34:00,
2015-08-05 04:39:00,41.2,37.3,28.53,North,0,0.0,0.0,86,0.00,CLR,OVC,0.00,WeatherDisplay:10.37,2015-08-05 08:39:00,
2015-08-05 04:44:00,41.2,37.3,28.53,North,0,0.0,0.0,86,0.00,CLR,OVC,0.00,WeatherDisplay:10.37,2015-08-05 08:44:00,
2015-08-05 04:49:00,41.2,37.6,28.53,North,0,0.0,0.0,87,0.00,CLR,OVC,0.00,WeatherDisplay:10.37,2015-08-05 08:49:00,
2015-08-05 04:54:00,41.2,37.6,28.53,North,0,0.0,0.0,87,0.00,CLR,OVC,0.00,WeatherDisplay:10.37,2015-08-05 08:54:00,
2015-08-05 04:59:00,41.2,37.6,28.53,North,0,0.0,0.0,87,0.00,CLR,OVC,0.00,WeatherDisplay:10.37,2015-08-05 08:59:00,
2015-08-05 05:04:00,41.2,37.6,28.53,North,0,0.0,0.0,87,0.00,CLR,OVC,0.00,WeatherDisplay:10.37,2015-08-05 09:04:00,
2015-08-05 05:09:00,41.2,37.6,28.53,North,0,0.0,0.0,87,0.00,CLR,OVC,0.00,WeatherDisplay:10.37,2015-08-05 09:09:00,
2015-08-05 05:14:00,41.2,37.6,28.53,North,0,0.0,0.0,87,0.00,CLR,OVC,0.00,WeatherDisplay:10.37,2015-08-05 09:14:00,
2015-08-05 05:19:00,41.2,37.6,28.53,North,0,0.0,0.0,87,0.00,CLR,OVC,0.00,WeatherDisplay:10.37,2015-08-05 09:19:00,
2015-08-05 05:24:00,41.2,37.6,28.53,North,0,0.0,0.0,87,0.00,CLR,OVC,0.00,WeatherDisplay:10.37,2015-08-05 09:24:00,
2015-08-05 05:29:00,41.2,37.6,28.53,North,0,0.0,0.0,87,0.00,CLR,OVC,0.00,WeatherDisplay:10.37,2015-08-05 09:29:00,
2015-08-05 05:34:00,41.2,37.6,28.53,North,0,0.0,0.0,87,0.00,CLR,OVC,0.00,WeatherDisplay:10.37,2015-08-05 09:34:00,
2015-08-05 05:39:00,41.0,37.4,28.53,North,0,0.0,0.0,87,0.00,CLR,OVC,0.00,WeatherDisplay:10.37,2015-08-05 09:39:00,
2015-08-05 05:44:00,40.8,37.3,28.53,North,0,0.0,0.0,87,0.00,CLR,OVC,0.00,WeatherDisplay:10.37,2015-08-05 09:44:00,
2015-08-05 05:49:00,41.0,37.4,28.53,North,0,0.0,0.0,87,0.00,CLR,OVC,0.00,WeatherDisplay:10.37,2015-08-05 09:49:00,
2015-08-05 05:54:00,41.0,37.4,28.53,North,0,0.0,0.0,87,0.00,CLR,OVC,0.00,WeatherDisplay:10.37,2015-08-05 09:54:00,
2015-08-05 05:59:00,41.0,37.4,28.53,North,0,0.0,0.0,87,0.00,CLR,OVC,0.00,WeatherDisplay:10.37,2015-08-05 09:59:00,
2015-08-05 06:04:00,41.0,37.7,28.53,North,0,0.0,0.0,88,0.00,CLR,OVC,0.00,WeatherDisplay:10.37,2015-08-05 10:04:00,
2015-08-05 06:09:00,41.2,37.9,28.53,North,0,0.0,0.0,88,0.00,CLR,OVC,0.00,WeatherDisplay:10.37,2015-08-05 10:09:00,
2015-08-05 06:14:00,41.2,37.9,28.53,North,0,0.0,0.0,88,0.00,CLR,OVC,0.00,WeatherDisplay:10.37,2015-08-05 10:14:00,
2015-08-05 06:19:00,41.2,37.9,28.53,North,0,0.0,0.0,88,0.00,CLR,OVC,0.00,WeatherDisplay:10.37,2015-08-05 10:19:00,
2015-08-05 06:24:00,41.2,37.9,28.53,North,0,0.0,0.0,88,0.00,CLR,OVC,0.00,WeatherDisplay:10.37,2015-08-05 10:24:00,
2015-08-05 06:29:00,41.4,38.1,28.53,North,0,0.0,0.0,88,0.00,CLR,OVC,0.00,WeatherDisplay:10.37,2015-08-05 10:29:00,
2015-08-05 06:34:00,41.4,38.1,28.53,North,0,0.0,0.0,88,0.00,CLR,OVC,0.00,WeatherDisplay:10.37,2015-08-05 10:34:00,
2015-08-05 06:39:00,41.4,38.1,28.53,North,0,0.0,0.0,88,0.00,CLR,OVC,0.00,WeatherDisplay:10.37,2015-08-05 10:39:00,
2015-08-05 06:44:00,41.2,37.9,28.53,North,0,0.0,0.0,88,0.00,CLR,OVC,0.00,WeatherDisplay:10.37,2015-08-05 10:44:00,
2015-08-05 06:49:00,41.0,37.7,28.53,North,0,0.0,0.0,88,0.00,CLR,OVC,0.00,WeatherDisplay:10.37,2015-08-05 10:49:00,
2015-08-05 06:54:00,40.8,37.5,28.53,North,0,0.0,0.0,88,0.00,CLR,OVC,0.00,WeatherDisplay:10.37,2015-08-05 10:54:00,
2015-08-05 06:59:00,40.8,37.8,28.53,North,0,0.0,0.0,89,0.00,CLR,OVC,0.00,WeatherDisplay:10.37,2015-08-05 10:59:00,
2015-08-05 07:04:00,40.8,37.8,28.53,North,0,0.0,0.0,89,0.00,CLR,OVC,0.00,WeatherDisplay:10.37,2015-08-05 11:04:00,
2015-08-05 07:09:00,40.8,38.1,28.53,North,0,0.0,0.0,90,0.00,CLR,OVC,0.00,WeatherDisplay:10.37,2015-08-05 11:09:00,
2015-08-05 07:14:00,40.7,38.0,28.53,North,0,0.0,0.0,90,0.00,CLR,OVC,0.00,WeatherDisplay:10.37,2015-08-05 11:14:00,
2015-08-05 07:19:00,40.6,37.9,28.53,North,0,0.0,0.0,90,0.00,CLR,OVC,0.00,WeatherDisplay:10.37,2015-08-05 11:19:00,
2015-08-05 07:24:00,40.8,38.1,28.53,North,0,0.0,0.0,90,0.00,CLR,OVC,0.00,WeatherDisplay:10.37,2015-08-05 11:24:00,
2015-08-05 07:29:00,40.8,38.4,28.53,North,0,0.0,0.0,91,0.00,CLR,OVC,0.00,WeatherDisplay:10.37,2015-08-05 11:29:00,
2015-08-05 07:34:00,41.2,38.8,28.53,North,0,0.0,0.0,91,0.00,CLR,OVC,0.00,WeatherDisplay:10.37,2015-08-05 11:34:00,
2015-08-05 07:39:00,41.5,39.1,28.53,North,0,0.0,0.0,91,0.00,CLR,OVC,0.00,WeatherDisplay:10.37,2015-08-05 11:39:00,
2015-08-05 07:44:00,42.1,39.9,28.53,North,0,0.0,0.0,92,0.00,CLR,OVC,0.00,WeatherDisplay:10.37,2015-08-05 11:44:00,
2015-08-05 07:49:00,42.6,40.5,28.53,North,0,0.0,0.0,92,0.00,CLR,OVC,0.00,WeatherDisplay:10.37,2015-08-05 11:49:00,
2015-08-05 07:54:00,43.2,41.0,28.53,North,0,0.0,0.0,92,0.00,CLR,OVC,0.00,WeatherDisplay:10.37,2015-08-05 11:54:00,
2015-08-05 07:59:00,43.7,41.5,28.53,North,0,0.0,0.0,92,0.00,CLR,OVC,0.00,WeatherDisplay:10.37,2015-08-05 11:59:00,
2015-08-05 08:04:00,44.3,42.4,28.53,North,0,0.0,0.0,93,0.00,CLR,OVC,0.00,WeatherDisplay:10.37,2015-08-05 12:04:00,
2015-08-05 08:09:00,45.0,43.1,28.53,North,0,0.0,0.0,93,0.00,CLR,OVC,0.00,WeatherDisplay:10.37,2015-08-05 12:09:00,
2015-08-05 08:14:00,45.9,44.0,28.53,North,0,0.0,0.0,93,0.00,CLR,OVC,0.00,WeatherDisplay:10.37,2015-08-05 12:14:00,
2015-08-05 08:19:00,46.8,45.1,28.53,North,0,0.0,0.0,94,0.00,CLR,OVC,0.00,WeatherDisplay:10.37,2015-08-05 12:19:00,
2015-08-05 08:24:00,47.9,46.5,28.53,North,0,0.0,0.0,95,0.00,CLR,OVC,0.00,WeatherDisplay:10.37,2015-08-05 12:24:00,
2015-08-05 08:29:00,50.5,49.7,28.53,North,0,0.0,0.0,97,0.00,CLR,OVC,0.00,WeatherDisplay:10.37,2015-08-05 12:29:00,
2015-08-05 08:34:00,52.6,52.4,28.53,North,0,0.0,0.0,99,0.00,CLR,OVC,0.00,WeatherDisplay:10.37,2015-08-05 12:34:00,
2015-08-05 08:39:00,54.7,54.1,28.53,North,0,0.0,0.0,98,0.00,CLR,OVC,0.00,WeatherDisplay:10.37,2015-08-05 12:39:00,
2015-08-05 08:44:00,57.0,56.5,28.53,North,0,0.0,0.0,98,0.00,CLR,OVC,0.00,WeatherDisplay:10.37,2015-08-05 12:44:00,
2015-08-05 08:49:00,58.4,57.8,28.53,North,0,0.0,0.0,98,0.00,CLR,OVC,0.00,WeatherDisplay:10.37,2015-08-05 12:49:00,
2015-08-05 08:54:00,59.5,58.4,28.53,North,0,0.0,0.0,96,0.00,CLR,OVC,0.00,WeatherDisplay:10.37,2015-08-05 12:54:00,
2015-08-05 08:59:00,60.8,59.9,28.53,North,0,0.0,0.0,97,0.00,CLR,OVC,0.00,WeatherDisplay:10.37,2015-08-05 12:59:00,
2015-08-05 09:04:00,62.3,61.7,28.53,North,0,0.0,0.0,98,0.00,CLR,OVC,0.00,WeatherDisplay:10.37,2015-08-05 13:04:00,
2015-08-05 09:09:00,63.7,62.5,28.53,North,0,0.0,0.0,96,0.00,CLR,OVC,0.00,WeatherDisplay:10.37,2015-08-05 13:09:00,
2015-08-05 09:14:00,64.6,61.3,28.56,North,0,0.0,0.0,89,0.00,CLR,OVC,0.00,WeatherDisplay:10.37,2015-08-05 13:14:00,
2015-08-05 09:19:00,65.8,62.2,28.56,North,0,0.0,0.0,88,0.00,CLR,OVC,0.00,WeatherDisplay:10.37,2015-08-05 13:19:00,
2015-08-05 09:24:00,66.6,61.9,28.56,North,0,0.0,0.0,85,0.00,CLR,OVC,0.00,WeatherDisplay:10.37,2015-08-05 13:24:00,
2015-08-05 09:29:00,66.7,58.9,28.56,North,0,0.0,0.0,76,0.00,CLR,OVC,0.00,WeatherDisplay:10.37,2015-08-05 13:29:00,
2015-08-05 09:34:00,67.4,58.8,28.56,North,0,0.0,0.0,74,0.00,CLR,OVC,0.00,WeatherDisplay:10.37,2015-08-05 13:34:00,
2015-08-05 09:44:00,68.1,58.7,28.56,North,0,0.0,0.0,72,0.00,CLR,OVC,0.00,WeatherDisplay:10.37,2015-08-05 13:44:00,
2015-08-05 09:49:00,68.7,58.5,28.56,North,0,0.0,0.0,70,0.00,CLR,OVC,0.00,WeatherDisplay:10.37,2015-08-05 13:49:00,
2015-08-05 09:54:00,69.1,56.0,28.56,North,0,0.0,0.0,63,0.00,CLR,OVC,0.00,WeatherDisplay:10.37,2015-08-05 13:54:00,